Time;durP1;ratioP1;P1;durP2;ratioP2;P2;SDS_P1;SDS_P2;PMS_P1;PMS_P2;Temp;Humidity;BMP_temperature;BMP_pressure;BME280_temperature;BME280_humidity;BME280_pressure;Samples;Min_cycle;Max_cycle;Signal;HPM_P1;HPM_P2
2021/12/02 00:01:17;;;;;;;3.87;1.73;;;6.60;99.90;;;;;;606738;235;26582;-77
2021/12/02 00:03:46;;;;;;;3.83;1.70;;;6.70;99.90;;;;;;606515;234;26587;-77
2021/12/02 00:06:12;;;;;;;3.10;1.70;;;6.60;99.90;;;;;;606429;237;26801;-77
2021/12/02 00:08:40;;;;;;;3.50;1.77;;;6.50;99.90;;;;;;606021;236;26614;-77
2021/12/02 00:11:08;;;;;;;4.23;2.00;;;6.50;99.90;;;;;;606017;237;26576;-77
2021/12/02 00:13:47;;;;;;;4.17;2.07;;;6.50;99.90;;;;;;606044;234;26581;-77
2021/12/02 00:21:25;;;;;;;3.50;1.60;;;6.70;99.90;;;;;;603925;236;26639;-79
2021/12/02 00:23:59;;;;;;;3.00;1.50;;;6.70;99.90;;;;;;602443;235;26904;-80
2021/12/02 00:26:26;;;;;;;5.83;1.90;;;6.40;99.90;;;;;;603794;235;26603;-80
2021/12/02 00:28:53;;;;;;;1.73;1.63;;;6.40;99.90;;;;;;600137;238;26675;-82
2021/12/02 00:31:21;;;;;;;1.53;1.43;;;6.40;99.90;;;;;;602091;235;26659;-82
2021/12/02 00:33:50;;;;;;;5.87;1.60;;;6.40;99.90;;;;;;602844;236;26900;-80
2021/12/02 00:36:17;;;;;;;2.00;1.47;;;6.50;99.90;;;;;;599025;238;26595;-80
2021/12/02 00:38:46;;;;;;;2.57;1.77;;;6.40;99.90;;;;;;599712;238;26648;-79
2021/12/02 00:41:13;;;;;;;1.90;1.60;;;6.40;99.90;;;;;;600832;237;26659;-79
2021/12/02 00:43:41;;;;;;;1.60;1.40;;;6.40;99.90;;;;;;599208;238;26650;-79
2021/12/02 00:46:08;;;;;;;6.40;2.07;;;6.40;99.90;;;;;;599271;240;26635;-79
2021/12/02 00:48:36;;;;;;;2.37;1.47;;;5.70;99.90;;;;;;600637;237;26650;-79
2021/12/02 00:51:03;;;;;;;1.80;1.30;;;5.70;99.90;;;;;;603472;235;26973;-79
2021/12/02 00:53:31;;;;;;;1.93;1.30;;;5.20;99.90;;;;;;605751;236;26584;-79
2021/12/02 00:56:02;;;;;;;1.30;1.30;;;4.30;99.90;;;;;;605348;235;26577;-79
2021/12/02 00:58:29;;;;;;;1.30;1.20;;;4.30;99.90;;;;;;598876;238;26633;-78
2021/12/02 01:00:56;;;;;;;2.10;1.43;;;4.10;99.90;;;;;;599199;238;26833;-79
2021/12/02 01:03:23;;;;;;;1.73;1.63;;;4.00;99.90;;;;;;598791;238;26584;-79
2021/12/02 01:05:51;;;;;;;2.47;1.60;;;4.00;99.90;;;;;;598806;238;26874;-79
2021/12/02 01:08:19;;;;;;;2.03;1.80;;;4.00;99.90;;;;;;599176;235;26635;-78
2021/12/02 01:10:47;;;;;;;5.40;1.60;;;4.00;99.90;;;;;;611896;234;26584;-78
2021/12/02 01:13:14;;;;;;;1.77;1.50;;;3.90;99.90;;;;;;611396;235;26624;-79
2021/12/02 01:15:41;;;;;;;1.40;1.30;;;3.90;99.90;;;;;;599535;237;26865;-78
2021/12/02 01:18:09;;;;;;;1.50;1.40;;;4.00;99.90;;;;;;607134;235;26684;-79
2021/12/02 01:20:36;;;;;;;1.30;1.20;;;4.00;99.90;;;;;;609181;235;26632;-79
2021/12/02 01:23:04;;;;;;;1.10;1.10;;;4.00;99.90;;;;;;598820;239;26849;-79
2021/12/02 01:25:32;;;;;;;2.10;1.10;;;4.10;99.90;;;;;;601118;236;26662;-78
2021/12/02 01:27:59;;;;;;;1.80;1.33;;;4.10;99.90;;;;;;605054;236;26890;-78
2021/12/02 01:30:27;;;;;;;1.10;1.07;;;4.20;99.90;;;;;;604373;235;26607;-79
2021/12/02 01:33:06;;;;;;;1.27;1.20;;;4.20;99.90;;;;;;610633;235;26575;-79
2021/12/02 01:35:33;;;;;;;1.43;1.20;;;4.40;99.90;;;;;;604671;235;26579;-79
2021/12/02 01:40:45;;;;;;;2.07;1.27;;;4.40;99.90;;;;;;610018;235;26601;-81
2021/12/02 01:43:15;;;;;;;1.33;1.30;;;4.30;99.90;;;;;;600061;238;26848;-79
2021/12/02 01:45:43;;;;;;;1.20;1.20;;;4.30;99.90;;;;;;599333;239;26634;-78
2021/12/02 01:48:10;;;;;;;1.60;1.50;;;4.30;99.90;;;;;;605305;236;26889;-79
2021/12/02 01:50:38;;;;;;;1.30;1.30;;;4.20;99.90;;;;;;599034;236;26621;-79
2021/12/02 01:53:05;;;;;;;1.33;1.23;;;4.20;99.90;;;;;;605232;236;26666;-78
2021/12/02 01:55:33;;;;;;;1.57;1.47;;;4.40;99.90;;;;;;599132;238;26839;-79
2021/12/02 01:58:00;;;;;;;1.10;1.10;;;4.30;99.90;;;;;;599151;239;26860;-79
2021/12/02 02:00:32;;;;;;;1.40;1.30;;;4.30;99.90;;;;;;600258;236;26656;-79
2021/12/02 02:02:57;;;;;;;1.60;1.50;;;4.40;99.90;;;;;;601806;235;26812;-79
2021/12/02 02:05:25;;;;;;;1.30;1.30;;;4.60;99.90;;;;;;598889;238;26645;-78
2021/12/02 02:07:58;;;;;;;2.40;1.40;;;4.60;99.90;;;;;;598100;239;26902;-78
2021/12/02 02:10:26;;;;;;;1.50;1.40;;;4.50;99.90;;;;;;607883;236;27245;-79
2021/12/02 02:12:53;;;;;;;1.40;1.30;;;4.60;99.90;;;;;;602615;236;26601;-78
2021/12/02 02:15:20;;;;;;;1.20;1.10;;;4.40;99.90;;;;;;598635;237;26587;-79
2021/12/02 02:17:57;;;;;;;1.17;1.13;;;4.30;99.90;;;;;;599015;239;26581;-78
2021/12/02 02:20:21;;;;;;;2.57;1.07;;;4.20;99.90;;;;;;602934;233;26874;-79
2021/12/02 02:22:48;;;;;;;1.37;1.30;;;4.10;99.90;;;;;;602815;235;26856;-79
2021/12/02 02:25:15;;;;;;;1.93;1.23;;;4.20;99.90;;;;;;600118;238;26651;-79
2021/12/02 02:27:42;;;;;;;1.20;1.20;;;4.30;99.90;;;;;;601155;238;26591;-79
2021/12/02 02:30:11;;;;;;;1.23;1.23;;;4.10;99.90;;;;;;599835;238;26630;-79
2021/12/02 02:32:38;;;;;;;1.10;1.10;;;4.10;99.90;;;;;;599994;235;26670;-79
2021/12/02 02:35:06;;;;;;;1.73;1.30;;;4.10;99.90;;;;;;603779;231;26651;-79
2021/12/02 02:37:36;;;;;;;1.60;1.30;;;4.00;99.90;;;;;;602091;235;26607;-79
2021/12/02 02:40:02;;;;;;;1.27;1.20;;;4.00;99.90;;;;;;605734;234;26627;-79
2021/12/02 02:42:29;;;;;;;2.20;1.50;;;4.00;99.90;;;;;;602318;235;26552;-79
2021/12/02 02:44:56;;;;;;;1.60;1.50;;;3.90;99.90;;;;;;601326;235;26829;-79
2021/12/02 02:47:26;;;;;;;2.07;1.60;;;3.80;99.90;;;;;;603546;234;26640;-79
2021/12/02 02:49:51;;;;;;;2.67;1.30;;;3.90;99.90;;;;;;602970;235;26601;-79
2021/12/02 02:52:18;;;;;;;3.23;1.60;;;3.90;99.90;;;;;;601946;235;26625;-83
2021/12/02 02:54:46;;;;;;;3.47;1.60;;;3.90;99.90;;;;;;604701;235;26831;-79
2021/12/02 02:57:14;;;;;;;3.27;1.70;;;4.00;99.90;;;;;;603516;236;26897;-79
2021/12/02 03:00:02;;;;;;;1.73;1.30;;;4.00;99.90;;;;;;610294;234;26897;-80
2021/12/02 03:02:35;;;;;;;1.70;1.60;;;4.00;99.90;;;;;;598599;239;26608;-79
2021/12/02 03:05:05;;;;;;;3.07;1.70;;;4.00;99.90;;;;;;599028;239;26834;-80
2021/12/02 03:07:33;;;;;;;1.57;1.47;;;4.00;99.90;;;;;;600815;237;26641;-80
2021/12/02 03:10:02;;;;;;;1.97;1.60;;;4.00;99.90;;;;;;600945;237;26662;-80
2021/12/02 03:12:42;;;;;;;1.67;1.57;;;4.00;99.90;;;;;;599816;239;26592;-79
2021/12/02 03:17:49;;;;;;;2.27;1.67;;;4.10;99.90;;;;;;605265;236;26608;-79
2021/12/02 03:20:16;;;;;;;2.60;1.57;;;4.20;99.90;;;;;;601686;235;26833;-79
2021/12/02 03:22:44;;;;;;;1.63;1.50;;;4.00;99.90;;;;;;610356;236;26577;-80
2021/12/02 03:25:12;;;;;;;2.13;1.30;;;4.00;99.90;;;;;;602575;236;26575;-81
2021/12/02 03:27:39;;;;;;;1.43;1.33;;;4.00;99.90;;;;;;610313;236;26577;-79
2021/12/02 03:30:06;;;;;;;2.53;1.50;;;3.90;99.90;;;;;;601981;236;26590;-80
2021/12/02 03:32:34;;;;;;;1.90;1.60;;;3.90;99.90;;;;;;600307;237;26652;-81
2021/12/02 03:35:01;;;;;;;1.87;1.50;;;3.80;99.90;;;;;;601331;237;26849;-80
2021/12/02 03:37:28;;;;;;;1.67;1.57;;;3.90;99.90;;;;;;601776;237;26645;-80
2021/12/02 03:39:56;;;;;;;2.37;1.63;;;3.90;99.90;;;;;;608242;236;26577;-80
2021/12/02 03:42:23;;;;;;;2.97;1.80;;;3.90;99.90;;;;;;603330;234;26596;-80
2021/12/02 03:44:50;;;;;;;2.67;1.90;;;3.80;99.90;;;;;;600093;239;26647;-80
2021/12/02 03:47:18;;;;;;;1.80;1.70;;;3.80;99.90;;;;;;598417;237;26631;-80
2021/12/02 03:49:46;;;;;;;2.00;1.50;;;3.90;99.90;;;;;;598065;237;26668;-80
2021/12/02 03:52:14;;;;;;;2.83;1.50;;;3.80;99.90;;;;;;600260;236;26903;-80
2021/12/02 03:54:41;;;;;;;3.73;1.77;;;3.90;99.90;;;;;;599300;238;26630;-81
2021/12/02 03:57:08;;;;;;;2.10;2.00;;;3.80;99.90;;;;;;600033;238;26602;-80
2021/12/02 03:59:35;;;;;;;3.17;1.73;;;3.80;99.90;;;;;;600846;239;26872;-80
2021/12/02 04:02:04;;;;;;;3.03;1.60;;;3.90;99.90;;;;;;600826;239;26652;-80
2021/12/02 04:04:31;;;;;;;1.57;1.47;;;3.90;99.90;;;;;;593424;236;26891;-80
2021/12/02 04:06:58;;;;;;;2.53;1.50;;;4.00;99.90;;;;;;603054;236;26586;-80
2021/12/02 04:09:28;;;;;;;3.53;2.00;;;4.00;99.90;;;;;;606509;236;26884;-80
2021/12/02 04:11:59;;;;;;;1.93;1.67;;;3.90;99.90;;;;;;610090;233;26574;-80
2021/12/02 04:16:58;;;;;;;1.77;1.67;;;3.70;99.90;;;;;;602431;236;26603;-80
2021/12/02 04:19:23;;;;;;;3.60;1.47;;;3.70;99.90;;;;;;606495;236;26573;-85
2021/12/02 04:21:50;;;;;;;1.90;1.50;;;3.70;99.90;;;;;;601824;237;26595;-80
2021/12/02 04:24:17;;;;;;;1.77;1.43;;;3.70;99.90;;;;;;601258;237;26825;-80
2021/12/02 04:26:44;;;;;;;2.03;1.93;;;3.70;99.90;;;;;;600424;238;26601;-80
2021/12/02 04:29:12;;;;;;;1.83;1.43;;;3.80;99.90;;;;;;601259;236;26853;-80
2021/12/02 04:31:40;;;;;;;1.57;1.47;;;3.70;99.90;;;;;;602123;234;26550;-81
2021/12/02 04:34:08;;;;;;;1.70;1.60;;;3.70;99.90;;;;;;598866;239;26847;-81
2021/12/02 04:36:36;;;;;;;4.27;1.90;;;3.60;99.90;;;;;;600554;238;26595;-80
2021/12/02 04:39:03;;;;;;;1.80;1.67;;;3.60;99.90;;;;;;602488;237;26623;-80
2021/12/02 04:41:30;;;;;;;2.43;1.70;;;3.60;99.90;;;;;;601129;237;26599;-80
2021/12/02 04:43:57;;;;;;;1.67;1.53;;;3.50;99.90;;;;;;601568;234;26829;-80
2021/12/02 04:46:24;;;;;;;2.03;1.90;;;3.50;99.90;;;;;;601633;237;26550;-80
2021/12/02 04:48:52;;;;;;;2.30;1.60;;;3.60;99.90;;;;;;601822;236;26624;-80
2021/12/02 04:51:20;;;;;;;2.77;1.70;;;3.60;99.90;;;;;;603374;235;26594;-80
2021/12/02 04:53:47;;;;;;;1.83;1.47;;;3.60;99.90;;;;;;599200;238;26606;-80
2021/12/02 04:56:15;;;;;;;2.43;1.50;;;3.50;99.90;;;;;;600492;239;26588;-80
2021/12/02 04:58:42;;;;;;;3.57;1.70;;;3.40;99.90;;;;;;600284;239;26870;-80
2021/12/02 05:01:09;;;;;;;1.70;1.60;;;3.60;99.90;;;;;;600938;238;26835;-80
2021/12/02 05:03:37;;;;;;;1.60;1.50;;;3.40;99.90;;;;;;604052;237;26633;-80
2021/12/02 05:06:05;;;;;;;1.67;1.30;;;3.30;99.90;;;;;;606540;233;26589;-80
2021/12/02 05:08:32;;;;;;;2.63;1.93;;;3.30;99.90;;;;;;606262;235;26877;-80
2021/12/02 05:10:59;;;;;;;3.60;1.70;;;3.40;99.90;;;;;;606337;235;26596;-79
2021/12/02 05:13:27;;;;;;;2.17;1.73;;;3.30;99.90;;;;;;606459;234;26862;-79
2021/12/02 05:15:54;;;;;;;1.57;1.47;;;3.40;99.90;;;;;;606511;234;26633;-78
2021/12/02 05:18:22;;;;;;;1.53;1.43;;;3.30;99.90;;;;;;606402;232;26649;-78
2021/12/02 05:20:50;;;;;;;1.57;1.40;;;3.30;99.90;;;;;;606197;237;26546;-79
2021/12/02 05:23:17;;;;;;;1.60;1.50;;;3.20;99.90;;;;;;606216;233;26585;-79
2021/12/02 05:25:44;;;;;;;2.73;1.60;;;3.20;99.90;;;;;;606303;233;26999;-79
2021/12/02 05:28:12;;;;;;;1.67;1.57;;;3.20;99.90;;;;;;606174;237;26606;-78
2021/12/02 05:30:39;;;;;;;2.67;1.50;;;3.10;99.90;;;;;;606318;235;26578;-80
2021/12/02 05:33:06;;;;;;;4.27;1.67;;;3.10;99.90;;;;;;606248;235;27278;-80
2021/12/02 05:35:34;;;;;;;2.00;1.80;;;3.20;99.90;;;;;;606386;232;26585;-81
2021/12/02 05:38:01;;;;;;;2.20;1.60;;;3.10;99.90;;;;;;606288;237;26963;-81
2021/12/02 05:40:29;;;;;;;5.30;1.57;;;3.00;99.90;;;;;;606529;234;26591;-81
2021/12/02 05:42:57;;;;;;;2.23;1.50;;;3.10;99.90;;;;;;606305;235;26587;-79
2021/12/02 05:45:24;;;;;;;1.80;1.30;;;3.10;99.90;;;;;;606217;235;26861;-81
2021/12/02 05:47:51;;;;;;;3.13;1.53;;;3.00;99.90;;;;;;606459;233;26590;-81
2021/12/02 05:50:18;;;;;;;1.50;1.40;;;3.10;99.90;;;;;;606466;234;26848;-81
2021/12/02 05:52:46;;;;;;;1.60;1.50;;;3.20;99.90;;;;;;606220;235;26594;-81
2021/12/02 05:55:14;;;;;;;1.70;1.60;;;3.10;99.90;;;;;;606883;235;26582;-80
2021/12/02 05:57:42;;;;;;;1.60;1.50;;;3.20;99.90;;;;;;607594;234;26623;-81
2021/12/02 06:00:10;;;;;;;1.53;1.43;;;3.20;99.90;;;;;;607202;231;26856;-81
2021/12/02 06:02:37;;;;;;;2.57;1.57;;;3.10;99.90;;;;;;607263;234;26629;-81
2021/12/02 06:05:04;;;;;;;4.10;1.83;;;3.10;99.90;;;;;;606836;235;26966;-81
2021/12/02 06:07:32;;;;;;;4.63;1.60;;;3.00;99.90;;;;;;606825;234;26542;-81
2021/12/02 06:09:58;;;;;;;2.13;1.73;;;3.00;99.90;;;;;;606832;233;26649;-81
2021/12/02 06:12:26;;;;;;;3.13;1.90;;;3.20;99.90;;;;;;606730;235;26886;-81
2021/12/02 06:14:53;;;;;;;2.80;1.67;;;3.20;99.90;;;;;;607103;234;26859;-80
2021/12/02 06:17:21;;;;;;;2.53;1.90;;;3.10;99.90;;;;;;606462;235;26625;-81
2021/12/02 06:19:48;;;;;;;2.53;1.80;;;3.10;99.90;;;;;;606460;235;26659;-81
2021/12/02 06:22:15;;;;;;;2.53;1.90;;;3.10;99.90;;;;;;606473;235;26859;-81
2021/12/02 06:24:46;;;;;;;1.63;1.53;;;3.10;99.90;;;;;;606457;235;26584;-80
2021/12/02 06:27:11;;;;;;;2.23;2.10;;;3.20;99.90;;;;;;606287;237;26581;-80
2021/12/02 06:29:38;;;;;;;3.03;2.00;;;3.20;99.90;;;;;;606455;235;26867;-80
2021/12/02 06:32:07;;;;;;;3.23;2.17;;;3.20;99.90;;;;;;606234;235;26605;-81
2021/12/02 06:34:33;;;;;;;2.10;1.90;;;3.40;99.90;;;;;;606594;234;26832;-81
2021/12/02 06:37:01;;;;;;;2.60;2.30;;;3.20;99.90;;;;;;606129;234;26589;-81
2021/12/02 06:39:29;;;;;;;2.73;1.70;;;3.20;99.90;;;;;;606161;235;26601;-80
2021/12/02 06:41:57;;;;;;;4.83;2.00;;;3.10;99.90;;;;;;606505;234;26855;-81
2021/12/02 06:44:24;;;;;;;4.70;1.97;;;2.90;99.90;;;;;;606233;234;26608;-81
2021/12/02 06:46:51;;;;;;;5.37;2.10;;;3.00;99.90;;;;;;606202;235;26601;-81
2021/12/02 06:49:18;;;;;;;6.83;2.87;;;2.90;99.90;;;;;;606228;234;26842;-80
2021/12/02 06:51:46;;;;;;;2.50;1.83;;;2.90;99.90;;;;;;606201;235;26573;-81
2021/12/02 06:54:13;;;;;;;2.20;2.00;;;3.00;99.90;;;;;;606157;233;26578;-81
2021/12/02 06:56:41;;;;;;;4.87;2.20;;;3.00;99.90;;;;;;606164;237;26619;-81
2021/12/02 06:59:08;;;;;;;4.40;2.00;;;3.00;99.90;;;;;;606146;232;26842;-81
2021/12/02 07:01:35;;;;;;;4.10;1.70;;;3.10;99.90;;;;;;606205;235;26582;-81
2021/12/02 07:04:03;;;;;;;2.03;1.60;;;3.00;99.90;;;;;;606174;235;26995;-81
2021/12/02 07:06:31;;;;;;;6.13;2.07;;;3.00;99.90;;;;;;606608;235;26579;-81
2021/12/02 07:08:59;;;;;;;4.90;2.53;;;3.00;99.90;;;;;;607791;234;26618;-80
2021/12/02 07:11:26;;;;;;;3.60;1.80;;;3.00;99.90;;;;;;607354;234;26723;-81
2021/12/02 07:14:00;;;;;;;1.60;1.60;;;3.00;99.90;;;;;;607889;234;26613;-80
2021/12/02 07:16:21;;;;;;;2.10;1.90;;;2.80;99.90;;;;;;606632;236;26906;-81
2021/12/02 07:18:54;;;;;;;3.23;1.70;;;2.90;99.90;;;;;;606644;237;26664;-81
2021/12/02 07:21:17;;;;;;;1.87;1.77;;;2.90;99.90;;;;;;606287;237;26652;-81
2021/12/02 07:23:45;;;;;;;1.87;1.77;;;3.00;99.90;;;;;;606696;235;26650;-81
2021/12/02 07:26:12;;;;;;;2.13;2.00;;;3.00;99.90;;;;;;606621;234;26893;-81
2021/12/02 07:28:39;;;;;;;1.60;1.50;;;3.00;99.90;;;;;;606586;233;26600;-80
2021/12/02 07:31:06;;;;;;;2.43;2.00;;;3.20;99.90;;;;;;606760;234;26875;-81
2021/12/02 07:33:34;;;;;;;3.17;2.10;;;3.00;99.90;;;;;;603416;234;26674;-76
2021/12/02 07:36:02;;;;;;;5.00;2.10;;;3.00;99.90;;;;;;609877;235;26592;-79
2021/12/02 07:38:29;;;;;;;5.77;2.00;;;3.00;99.90;;;;;;599611;237;26610;-79
2021/12/02 07:41:04;;;;;;;3.13;2.23;;;2.80;99.90;;;;;;599748;237;26605;-79
2021/12/02 07:43:33;;;;;;;2.40;2.00;;;2.80;99.90;;;;;;598602;239;26594;-80
2021/12/02 07:46:00;;;;;;;3.27;1.77;;;2.80;99.90;;;;;;599116;238;26562;-79
2021/12/02 07:48:29;;;;;;;4.77;2.30;;;3.20;99.90;;;;;;595812;238;26627;-79
2021/12/02 07:50:56;;;;;;;2.07;1.87;;;3.20;99.90;;;;;;601887;236;26861;-80
2021/12/02 07:53:24;;;;;;;1.80;1.70;;;3.20;99.90;;;;;;610203;232;26667;-79
2021/12/02 07:55:52;;;;;;;2.40;2.00;;;3.20;99.90;;;;;;602741;234;26562;-80
2021/12/02 07:58:20;;;;;;;6.23;1.77;;;3.10;99.90;;;;;;603533;235;26656;-79
2021/12/02 08:00:47;;;;;;;4.30;2.00;;;3.10;99.90;;;;;;599069;238;26769;-80
2021/12/02 08:03:15;;;;;;;3.23;1.73;;;3.20;99.90;;;;;;599048;239;26832;-80
2021/12/02 08:05:44;;;;;;;2.30;1.50;;;3.50;99.90;;;;;;599745;238;26656;-79
2021/12/02 08:08:12;;;;;;;5.23;2.33;;;3.40;99.90;;;;;;600753;235;26653;-80
2021/12/02 08:10:39;;;;;;;2.07;1.87;;;3.40;99.90;;;;;;598974;235;26585;-80
2021/12/02 08:13:06;;;;;;;3.50;1.70;;;3.30;99.90;;;;;;602465;235;26654;-80
2021/12/02 08:15:34;;;;;;;2.83;1.97;;;3.10;99.90;;;;;;604931;234;26575;-80
2021/12/02 08:18:02;;;;;;;7.87;2.23;;;3.40;99.90;;;;;;599584;236;26611;-80
2021/12/02 08:20:29;;;;;;;5.83;1.80;;;3.40;99.90;;;;;;607678;235;26671;-79
2021/12/02 08:22:57;;;;;;;1.93;1.80;;;3.20;99.90;;;;;;603539;234;26626;-80
2021/12/02 08:25:26;;;;;;;7.37;1.87;;;3.20;99.90;;;;;;599980;240;26866;-80
2021/12/02 08:27:52;;;;;;;3.57;1.80;;;3.00;99.90;;;;;;603859;237;26664;-79
2021/12/02 08:30:25;;;;;;;4.33;1.90;;;3.00;99.90;;;;;;604092;237;26586;-80
2021/12/02 08:32:49;;;;;;;3.73;1.90;;;3.10;99.90;;;;;;600140;235;26631;-80
2021/12/02 08:35:18;;;;;;;2.17;1.83;;;3.30;99.90;;;;;;599282;238;26634;-79
2021/12/02 08:37:46;;;;;;;2.90;1.90;;;3.30;99.90;;;;;;602340;235;26651;-80
2021/12/02 08:40:12;;;;;;;2.00;1.60;;;3.30;99.90;;;;;;599385;238;26947;-80
2021/12/02 08:42:39;;;;;;;1.93;1.53;;;3.20;99.90;;;;;;601359;235;26858;-80
2021/12/02 08:45:06;;;;;;;2.93;1.90;;;3.00;99.90;;;;;;599713;238;26642;-80
2021/12/02 08:47:35;;;;;;;2.23;1.97;;;3.00;99.90;;;;;;602696;236;26578;-80
2021/12/02 08:50:01;;;;;;;2.50;1.67;;;3.10;99.90;;;;;;599760;235;26639;-80
2021/12/02 08:52:28;;;;;;;2.20;1.70;;;3.20;99.90;;;;;;604999;234;26597;-80
2021/12/02 08:54:55;;;;;;;3.87;1.93;;;3.20;99.90;;;;;;603701;236;26606;-79
2021/12/02 08:57:22;;;;;;;4.40;1.87;;;3.30;99.90;;;;;;599691;236;26591;-77
2021/12/02 08:59:50;;;;;;;5.07;1.70;;;2.70;99.90;;;;;;600421;239;26624;-78
2021/12/02 09:02:18;;;;;;;4.33;1.73;;;2.70;99.90;;;;;;597467;238;26583;-77
2021/12/02 09:04:45;;;;;;;3.77;2.23;;;2.60;99.90;;;;;;594560;237;26581;-78
2021/12/02 09:07:12;;;;;;;2.37;1.90;;;2.60;99.90;;;;;;594370;242;26889;-80
2021/12/02 09:09:39;;;;;;;2.47;1.60;;;2.50;99.90;;;;;;594541;237;26627;-78
2021/12/02 09:12:08;;;;;;;4.80;2.10;;;2.50;99.90;;;;;;597439;238;26842;-80
2021/12/02 09:14:34;;;;;;;5.30;2.27;;;2.40;99.90;;;;;;598976;238;26923;-80
2021/12/02 09:17:01;;;;;;;2.20;2.00;;;2.50;99.90;;;;;;599107;238;26586;-79
2021/12/02 09:19:28;;;;;;;2.20;2.00;;;2.60;99.90;;;;;;600260;238;26634;-79
2021/12/02 09:21:56;;;;;;;2.67;1.70;;;2.50;99.90;;;;;;599079;237;26558;-79
2021/12/02 09:24:24;;;;;;;2.17;1.70;;;2.40;99.90;;;;;;599087;238;26799;-79
2021/12/02 09:26:51;;;;;;;5.03;2.20;;;2.50;99.90;;;;;;598126;239;26635;-79
2021/12/02 09:29:19;;;;;;;3.87;2.67;;;2.70;99.90;;;;;;598704;238;26903;-80
2021/12/02 09:31:46;;;;;;;3.30;1.70;;;2.70;99.90;;;;;;600764;236;26625;-80
2021/12/02 09:34:14;;;;;;;4.77;2.07;;;2.50;99.90;;;;;;600120;236;26587;-80
2021/12/02 09:36:41;;;;;;;2.23;2.00;;;2.50;99.90;;;;;;602267;238;26640;-80
2021/12/02 09:39:08;;;;;;;2.97;2.00;;;2.50;99.90;;;;;;601532;237;26650;-79
2021/12/02 09:41:35;;;;;;;3.57;1.73;;;2.60;99.90;;;;;;604673;236;26860;-79
2021/12/02 09:44:04;;;;;;;2.63;2.20;;;2.60;99.90;;;;;;597088;236;26598;-79
2021/12/02 09:46:31;;;;;;;10.27;2.33;;;2.60;99.90;;;;;;598044;237;26647;-80
2021/12/02 09:49:00;;;;;;;1.63;1.50;;;2.80;99.90;;;;;;599464;238;26919;-77
2021/12/02 09:51:31;;;;;;;1.80;1.70;;;2.60;99.90;;;;;;600206;239;26590;-78
2021/12/02 09:53:58;;;;;;;4.00;1.90;;;2.60;99.90;;;;;;599343;236;26575;-78
2021/12/02 09:56:26;;;;;;;6.83;2.23;;;2.70;99.90;;;;;;599486;239;26595;-78
2021/12/02 09:58:53;;;;;;;2.00;1.90;;;2.70;99.90;;;;;;599600;238;26630;-77
2021/12/02 10:01:23;;;;;;;5.53;1.70;;;2.70;99.90;;;;;;599445;239;26591;-78
2021/12/02 10:03:51;;;;;;;2.17;1.77;;;2.70;99.90;;;;;;599449;239;26606;-77
2021/12/02 10:06:17;;;;;;;2.47;1.83;;;2.70;99.90;;;;;;604666;235;26640;-76
2021/12/02 10:08:51;;;;;;;5.97;2.10;;;2.70;99.90;;;;;;607684;236;26841;-80
2021/12/02 10:11:14;;;;;;;10.43;2.03;;;2.70;99.90;;;;;;607355;236;26600;-80
2021/12/02 10:13:44;;;;;;;1.90;1.40;;;2.70;99.90;;;;;;601408;234;26891;-79
2021/12/02 10:16:27;;;;;;;4.97;1.60;;;2.60;99.90;;;;;;598563;239;26604;-81
2021/12/02 10:18:55;;;;;;;5.07;2.00;;;2.90;99.90;;;;;;598730;239;26614;-79
2021/12/02 10:21:25;;;;;;;3.40;1.67;;;2.90;99.90;;;;;;600254;238;26913;-80
2021/12/02 10:23:47;;;;;;;2.70;2.40;;;2.90;99.90;;;;;;601126;238;26675;-84
2021/12/02 10:26:18;;;;;;;6.67;2.30;;;3.10;99.90;;;;;;601437;237;26581;-85
2021/12/02 10:28:42;;;;;;;8.03;2.37;;;3.00;99.90;;;;;;606910;236;26880;-84
2021/12/02 10:31:09;;;;;;;9.00;2.00;;;2.90;99.90;;;;;;610236;236;26566;-83
2021/12/02 10:33:37;;;;;;;4.07;1.70;;;2.90;99.90;;;;;;610275;231;26589;-84
2021/12/02 10:36:07;;;;;;;4.17;1.87;;;2.90;99.90;;;;;;610360;236;26621;-83
2021/12/02 10:38:36;;;;;;;8.63;1.90;;;2.90;99.90;;;;;;610367;236;26691;-84
2021/12/02 10:41:03;;;;;;;5.27;1.93;;;2.90;99.90;;;;;;610675;231;26972;-84
2021/12/02 10:43:31;;;;;;;1.93;1.73;;;2.90;99.90;;;;;;611894;233;26582;-84
2021/12/02 10:46:15;;;;;;;1.73;1.63;;;2.90;99.90;;;;;;611600;235;26823;-84
2021/12/02 10:48:48;;;;;;;1.80;1.70;;;2.90;99.90;;;;;;611314;231;26628;-84
2021/12/02 10:51:24;;;;;;;4.43;1.73;;;2.90;99.90;;;;;;611169;234;26820;-84
2021/12/02 10:53:59;;;;;;;1.77;1.60;;;2.90;99.90;;;;;;602042;234;26595;-83
2021/12/02 10:56:31;;;;;;;3.00;1.87;;;2.90;99.90;;;;;;599662;239;26839;-84
2021/12/02 10:58:59;;;;;;;3.63;2.10;;;2.90;99.90;;;;;;599418;239;26951;-85
2021/12/02 11:01:37;;;;;;;2.07;1.93;;;3.00;99.90;;;;;;598301;238;26661;-85
2021/12/02 11:04:04;;;;;;;2.23;2.00;;;3.00;99.90;;;;;;599287;240;26868;-85
2021/12/02 11:06:40;;;;;;;5.47;2.00;;;3.10;99.90;;;;;;599226;238;26650;-87
2021/12/02 11:09:15;;;;;;;1.80;1.70;;;3.20;99.90;;;;;;599389;239;26884;-86
2021/12/02 11:11:43;;;;;;;4.73;1.83;;;3.20;99.90;;;;;;598917;238;26890;-86
2021/12/02 11:14:10;;;;;;;1.97;1.60;;;3.20;99.90;;;;;;599275;238;26803;-86
2021/12/02 11:16:37;;;;;;;3.83;1.73;;;3.20;99.90;;;;;;602116;235;26595;-86
2021/12/02 11:19:17;;;;;;;4.07;1.83;;;3.10;99.90;;;;;;610198;236;26642;-84
2021/12/02 11:21:44;;;;;;;3.90;1.87;;;3.00;99.90;;;;;;610234;236;26587;-85
2021/12/02 11:24:11;;;;;;;4.63;2.13;;;3.10;99.90;;;;;;610187;236;26858;-84
2021/12/02 11:26:38;;;;;;;5.13;1.87;;;3.20;99.90;;;;;;609465;235;26624;-87
2021/12/02 11:29:06;;;;;;;5.93;1.80;;;3.30;99.90;;;;;;610299;232;26893;-84
2021/12/02 11:31:34;;;;;;;2.93;2.20;;;3.40;99.90;;;;;;610327;236;26607;-86
2021/12/02 11:34:02;;;;;;;3.43;1.80;;;3.40;99.90;;;;;;610110;236;26688;-86
2021/12/02 11:36:29;;;;;;;1.83;1.57;;;3.40;99.90;;;;;;610064;234;26872;-85
2021/12/02 11:38:57;;;;;;;2.93;2.00;;;3.40;99.90;;;;;;610449;235;26647;-85
2021/12/02 11:41:23;;;;;;;1.97;1.80;;;3.30;99.90;;;;;;610467;236;26847;-86
2021/12/02 11:43:53;;;;;;;7.13;2.23;;;3.20;99.90;;;;;;610434;231;26618;-86
2021/12/02 11:46:18;;;;;;;2.53;1.97;;;3.30;99.90;;;;;;610293;235;26576;-84
2021/12/02 11:48:46;;;;;;;2.93;1.97;;;3.30;99.90;;;;;;610414;235;26619;-85
2021/12/02 11:51:13;;;;;;;5.73;1.90;;;3.30;99.90;;;;;;610416;233;26824;-84
2021/12/02 11:53:40;;;;;;;3.17;2.20;;;3.30;99.90;;;;;;611413;233;26619;-83
2021/12/02 11:56:07;;;;;;;3.23;2.10;;;3.30;99.90;;;;;;611700;235;26874;-82
2021/12/02 11:58:35;;;;;;;3.60;1.73;;;3.50;99.90;;;;;;611320;235;26612;-83
2021/12/02 12:01:03;;;;;;;3.33;2.27;;;3.50;99.90;;;;;;611171;235;26582;-83
2021/12/02 12:03:40;;;;;;;3.17;1.67;;;3.50;99.90;;;;;;610912;235;26925;-84
2021/12/02 12:06:21;;;;;;;2.50;1.80;;;3.60;99.90;;;;;;610772;234;26747;-79
2021/12/02 12:08:49;;;;;;;1.80;1.53;;;3.50;99.90;;;;;;610827;235;26690;-78
2021/12/02 12:11:26;;;;;;;2.30;1.80;;;3.50;99.90;;;;;;610724;233;26639;-78
2021/12/02 12:13:53;;;;;;;1.80;1.70;;;3.50;99.90;;;;;;610607;235;26568;-80
2021/12/02 12:16:26;;;;;;;4.13;2.47;;;3.60;99.90;;;;;;610637;235;26856;-83
2021/12/02 12:18:54;;;;;;;2.70;1.90;;;3.40;99.90;;;;;;610421;235;26619;-83
2021/12/02 12:21:34;;;;;;;4.00;2.00;;;3.40;99.90;;;;;;610637;235;26629;-84
2021/12/02 12:24:01;;;;;;;1.90;1.80;;;3.50;99.90;;;;;;610635;235;26909;-83
2021/12/02 12:26:31;;;;;;;2.10;1.60;;;3.40;99.90;;;;;;607016;234;26692;-82
2021/12/02 12:29:18;;;;;;;4.20;2.00;;;3.40;99.90;;;;;;598893;237;26978;-81
2021/12/02 12:32:05;;;;;;;1.70;1.60;;;3.40;99.90;;;;;;598733;239;26595;-82
2021/12/02 12:34:54;;;;;;;2.10;1.87;;;3.50;99.90;;;;;;598033;239;26847;-82
2021/12/02 12:37:46;;;;;;;4.60;1.63;;;3.60;99.90;;;;;;599112;239;26590;-82
2021/12/02 12:40:09;;;;;;;3.27;1.70;;;3.60;99.90;;;;;;597574;239;26868;-82
2021/12/02 12:42:38;;;;;;;5.13;2.00;;;3.60;99.70;;;;;;598792;239;26610;-82
2021/12/02 12:45:08;;;;;;;1.83;1.73;;;3.60;99.60;;;;;;598084;237;26571;-82
2021/12/02 12:47:45;;;;;;;2.67;1.53;;;3.60;99.60;;;;;;598622;238;26849;-82
2021/12/02 12:50:24;;;;;;;2.93;1.70;;;3.50;99.90;;;;;;600320;239;26613;-82
2021/12/02 12:53:20;;;;;;;3.57;1.67;;;3.50;99.90;;;;;;596541;237;26606;-82
2021/12/02 12:56:04;;;;;;;4.13;1.80;;;3.70;99.90;;;;;;598129;239;26638;-82
2021/12/02 12:58:31;;;;;;;1.60;1.60;;;3.80;99.80;;;;;;599284;235;26642;-82
2021/12/02 13:00:59;;;;;;;1.80;1.70;;;3.70;99.90;;;;;;600207;238;26615;-82
2021/12/02 13:03:32;;;;;;;3.83;2.00;;;3.70;99.90;;;;;;599632;237;26575;-80
2021/12/02 13:06:05;;;;;;;3.57;1.70;;;3.80;99.90;;;;;;603163;236;26682;-81
2021/12/02 13:08:36;;;;;;;2.70;1.70;;;3.70;99.90;;;;;;609964;234;26928;-81
2021/12/02 13:10:59;;;;;;;1.73;1.70;;;3.70;99.90;;;;;;613158;234;26666;-80
2021/12/02 13:13:27;;;;;;;2.47;1.70;;;3.70;99.90;;;;;;608681;235;26629;-80
2021/12/02 13:15:54;;;;;;;3.23;2.17;;;3.70;99.90;;;;;;600672;239;27212;-80
2021/12/02 13:18:31;;;;;;;2.43;2.00;;;3.60;99.80;;;;;;600125;230;26625;-80